createdAt,value
2023-05-15T00:07:06.695Z,12.88
2023-05-15T00:09:45.174Z,11.95
2023-05-15T00:12:27.698Z,13.40
2023-05-15T00:15:28.220Z,13.18
2023-05-15T00:18:02.329Z,12.60
2023-05-15T00:20:29.343Z,13.80
2023-05-15T00:22:56.903Z,13.52
2023-05-15T00:25:24.125Z,13.00
2023-05-15T00:27:51.163Z,13.57
2023-05-15T00:30:18.067Z,13.25
2023-05-15T00:32:45.048Z,13.27
2023-05-15T00:35:12.053Z,13.57
2023-05-15T00:37:38.984Z,14.20
2023-05-15T00:40:08.018Z,14.00
2023-05-15T00:42:35.928Z,14.88
2023-05-15T00:45:03.497Z,13.98
2023-05-15T00:47:32.928Z,14.27
2023-05-15T00:50:01.643Z,14.40
2023-05-15T00:52:29.669Z,14.75
2023-05-15T00:54:56.971Z,14.40
2023-05-15T00:57:27.443Z,14.07
2023-05-15T00:59:57.273Z,14.68
2023-05-15T01:02:24.772Z,15.40
2023-05-15T01:04:52.205Z,15.18
2023-05-15T01:07:19.189Z,14.10
2023-05-15T01:09:47.550Z,14.23
2023-05-15T01:12:16.759Z,14.63
2023-05-15T01:14:43.812Z,14.18
2023-05-15T01:17:10.846Z,14.50
2023-05-15T01:19:39.864Z,14.65
2023-05-15T01:22:30.213Z,14.35
2023-05-15T01:25:18.307Z,14.93
2023-05-15T01:27:58.776Z,14.35
2023-05-15T01:30:33.551Z,14.50
2023-05-15T01:33:20.935Z,14.68
2023-05-15T01:36:05.332Z,14.55
2023-05-15T01:38:39.861Z,13.65
2023-05-15T01:41:23.867Z,14.60
2023-05-15T01:44:04.952Z,14.23
2023-05-15T01:46:36.155Z,14.32
2023-05-15T01:49:04.246Z,14.38
2023-05-15T01:51:33.427Z,13.23
2023-05-15T01:54:01.860Z,14.20
2023-05-15T01:56:30.466Z,15.45
2023-05-15T01:59:00.161Z,14.45
2023-05-15T02:01:37.829Z,15.30
2023-05-15T02:04:12.179Z,14.90
2023-05-15T02:09:54.452Z,15.10
2023-05-15T02:12:24.306Z,15.30
2023-05-15T02:15:12.774Z,14.30
2023-05-15T02:17:51.128Z,15.65
2023-05-15T02:20:19.448Z,16.15
2023-05-15T02:22:55.501Z,15.77
2023-05-15T02:26:05.041Z,16.02
2023-05-15T02:33:27.216Z,15.07
2023-05-15T02:36:35.833Z,14.93
2023-05-15T02:40:12.731Z,14.95
2023-05-15T02:44:07.741Z,15.13
2023-05-15T02:46:46.670Z,15.05
2023-05-15T02:53:44.636Z,15.35
2023-05-15T03:05:18.313Z,16.15
2023-05-15T03:09:23.153Z,16.52
2023-05-15T03:12:00.438Z,16.70
2023-05-15T03:14:40.625Z,16.35
2023-05-15T03:26:07.947Z,14.32
2023-05-15T03:28:42.249Z,16.15
2023-05-15T03:35:52.452Z,16.42
2023-05-15T03:46:52.835Z,16.52
2023-05-15T03:49:25.590Z,16.05
2023-05-15T03:54:44.925Z,17.42
2023-05-15T03:57:42.337Z,17.25
2023-05-15T04:00:26.270Z,17.88
2023-05-15T04:02:54.036Z,17.67
2023-05-15T04:05:21.962Z,17.67
2023-05-15T04:07:48.951Z,17.15
2023-05-15T04:10:15.848Z,17.73
2023-05-15T04:12:42.780Z,19.13
2023-05-15T04:15:25.632Z,20.17
2023-05-15T04:17:54.176Z,20.50
2023-05-15T04:20:24.209Z,19.45
2023-05-15T04:22:52.480Z,19.42
2023-05-15T04:25:20.274Z,20.83
2023-05-15T04:27:47.682Z,20.00
2023-05-15T04:30:14.785Z,20.85
2023-05-15T04:32:42.396Z,20.08
2023-05-15T04:35:12.562Z,19.50
2023-05-15T04:37:41.483Z,19.40
2023-05-15T04:40:11.545Z,18.05
2023-05-15T04:42:39.391Z,18.88
2023-05-15T04:45:08.173Z,19.45
2023-05-15T04:47:36.011Z,20.17
2023-05-15T04:50:03.496Z,19.63
2023-05-15T04:52:30.768Z,18.83
2023-05-15T04:54:59.054Z,18.83
2023-05-15T04:57:26.208Z,18.90
2023-05-15T04:59:53.305Z,17.02
2023-05-15T05:02:23.782Z,15.90
2023-05-15T05:04:51.261Z,17.02
2023-05-15T05:07:18.366Z,16.35
2023-05-15T05:09:45.671Z,16.10
2023-05-15T05:12:12.772Z,16.00
2023-05-15T05:14:42.090Z,15.25
2023-05-15T05:17:09.330Z,16.77
2023-05-15T05:19:36.320Z,15.45
2023-05-15T05:22:05.674Z,15.57
2023-05-15T05:24:33.312Z,15.13
2023-05-15T05:27:00.316Z,15.27
2023-05-15T05:29:27.541Z,15.82
2023-05-15T05:31:54.650Z,14.68
2023-05-15T05:34:22.491Z,14.52
2023-05-15T05:36:50.084Z,15.88
2023-05-15T05:39:19.053Z,15.25
2023-05-15T05:41:46.036Z,15.52
2023-05-15T05:44:13.004Z,15.90
2023-05-15T05:46:39.879Z,15.45
2023-05-15T05:49:06.815Z,15.80
2023-05-15T05:51:37.009Z,14.25
2023-05-15T05:54:04.145Z,14.40
2023-05-15T05:56:31.380Z,14.32
2023-05-15T05:58:59.560Z,15.10
2023-05-15T06:01:26.976Z,14.60
2023-05-15T06:03:55.712Z,14.48
2023-05-15T06:06:22.896Z,13.48
2023-05-15T06:08:49.898Z,15.13
2023-05-15T06:11:16.921Z,15.50
2023-05-15T06:13:43.962Z,13.55
2023-05-15T06:16:10.966Z,14.65
2023-05-15T06:18:38.252Z,14.95
2023-05-15T06:21:05.237Z,13.15
2023-05-15T06:23:32.508Z,14.02
2023-05-15T06:25:59.520Z,13.90
2023-05-15T06:28:26.499Z,12.75
2023-05-15T06:30:53.415Z,12.27
2023-05-15T06:33:22.100Z,11.90
2023-05-15T06:35:49.253Z,13.18
2023-05-15T06:38:16.706Z,12.60
2023-05-15T06:40:43.616Z,12.70
2023-05-15T06:43:10.507Z,12.68
2023-05-15T06:45:37.418Z,12.20
2023-05-15T06:48:04.678Z,11.80
2023-05-15T06:50:31.630Z,12.77
2023-05-15T06:52:58.735Z,12.35
2023-05-15T06:55:26.136Z,13.75
2023-05-15T06:58:01.538Z,14.45
2023-05-15T07:01:31.632Z,15.57
2023-05-15T07:04:47.132Z,14.40
2023-05-15T07:07:56.280Z,14.52
2023-05-15T07:11:05.931Z,13.95
2023-05-15T07:14:44.055Z,14.40
2023-05-15T07:22:12.103Z,14.32
2023-05-15T07:25:17.175Z,13.13
2023-05-15T07:31:53.679Z,13.10
2023-05-15T07:35:31.385Z,13.90
2023-05-15T07:50:07.899Z,14.10
2023-05-15T07:52:39.050Z,13.45
2023-05-15T07:55:11.056Z,12.43
2023-05-15T07:57:40.768Z,12.65
2023-05-15T08:00:13.717Z,11.52
2023-05-15T08:02:42.623Z,11.40
2023-05-15T08:05:10.137Z,12.55
2023-05-15T08:07:37.596Z,12.65
2023-05-15T08:10:06.396Z,11.95
2023-05-15T08:12:34.013Z,12.18
2023-05-15T08:15:01.033Z,12.20
2023-05-15T08:17:28.301Z,11.82
2023-05-15T08:19:56.320Z,11.77
2023-05-15T08:22:23.453Z,11.77
2023-05-15T08:24:50.513Z,12.30
2023-05-15T08:27:17.527Z,11.60
2023-05-15T08:29:45.218Z,11.50
2023-05-15T08:32:12.309Z,12.07
2023-05-15T08:34:39.396Z,11.45
2023-05-15T08:37:07.166Z,12.40
2023-05-15T08:39:34.960Z,11.73
2023-05-15T08:42:22.896Z,12.13
2023-05-15T08:44:53.085Z,10.63
2023-05-15T08:47:21.255Z,10.05
2023-05-15T08:50:15.485Z,9.85
2023-05-15T08:52:48.106Z,10.07
2023-05-15T08:55:17.453Z,10.10
2023-05-15T08:57:45.891Z,8.60
2023-05-15T09:00:14.822Z,9.15
2023-05-15T09:02:43.272Z,8.65
2023-05-15T09:05:10.967Z,9.27
2023-05-15T09:07:44.979Z,8.98
2023-05-15T09:10:14.368Z,8.90
2023-05-15T09:12:46.862Z,8.93
2023-05-15T09:15:21.859Z,8.95
2023-05-15T09:20:40.012Z,7.85
2023-05-15T09:23:25.190Z,8.60
2023-05-15T09:25:53.965Z,8.48
2023-05-15T09:28:28.383Z,8.30
2023-05-15T09:31:04.707Z,8.32
2023-05-15T09:33:37.319Z,8.73
2023-05-15T09:36:07.458Z,8.20
2023-05-15T09:38:41.090Z,8.18
2023-05-15T09:41:09.417Z,8.43
2023-05-15T09:43:41.306Z,7.95
2023-05-15T09:46:09.437Z,8.07
2023-05-15T09:48:36.791Z,7.82
2023-05-15T09:51:14.251Z,8.35
2023-05-15T09:53:41.751Z,8.00
2023-05-15T09:56:10.492Z,7.63
2023-05-15T09:58:37.487Z,7.30
2023-05-15T10:01:11.909Z,6.40
2023-05-15T10:03:43.593Z,7.18
2023-05-15T10:06:18.715Z,6.40
2023-05-15T10:08:54.587Z,7.30
2023-05-15T10:11:23.762Z,7.57
2023-05-15T10:13:50.809Z,7.00
2023-05-15T10:16:22.543Z,7.20
2023-05-15T10:18:52.513Z,6.80
2023-05-15T10:21:23.004Z,6.82
2023-05-15T10:23:51.003Z,5.97
2023-05-15T10:26:27.746Z,7.10
2023-05-15T10:28:56.483Z,7.35
2023-05-15T10:31:24.725Z,7.30
2023-05-15T10:33:55.207Z,7.20
2023-05-15T10:36:23.293Z,7.28
2023-05-15T10:38:51.375Z,8.20
2023-05-15T10:41:20.924Z,6.60
2023-05-15T10:43:49.681Z,6.68
2023-05-15T10:46:17.352Z,7.63
2023-05-15T10:48:45.225Z,7.07
2023-05-15T10:51:17.779Z,6.50
2023-05-15T10:53:46.074Z,6.35
2023-05-15T10:56:17.070Z,6.13
2023-05-15T10:58:49.363Z,6.10
2023-05-15T11:01:32.178Z,6.22
2023-05-15T11:04:13.173Z,5.60
2023-05-15T11:06:49.334Z,6.10
2023-05-15T11:09:22.403Z,6.55
2023-05-15T11:12:04.792Z,5.55
2023-05-15T11:15:08.626Z,5.75
2023-05-15T11:17:38.249Z,7.50
2023-05-15T11:20:14.326Z,8.52
2023-05-15T11:23:22.785Z,7.63
2023-05-15T11:26:13.490Z,7.93
2023-05-15T11:28:52.295Z,8.38
2023-05-15T11:32:00.117Z,9.35
2023-05-15T11:34:45.298Z,8.15
2023-05-15T11:38:09.655Z,8.00
2023-05-15T11:41:19.452Z,8.05
2023-05-15T11:43:55.260Z,7.47
2023-05-15T11:47:14.828Z,8.00
2023-05-15T11:50:31.044Z,8.07
2023-05-15T11:53:09.141Z,8.88
2023-05-15T11:55:45.200Z,8.38
2023-05-15T11:58:47.586Z,9.90
2023-05-15T12:01:27.952Z,10.20
2023-05-15T12:04:00.701Z,10.52
2023-05-15T12:06:45.212Z,8.63
2023-05-15T12:09:45.913Z,8.13
2023-05-15T12:12:35.378Z,7.72
2023-05-15T12:16:15.622Z,7.38
2023-05-15T12:23:17.174Z,8.07
2023-05-15T12:26:39.456Z,10.18
2023-05-15T12:29:18.496Z,8.57
2023-05-15T12:32:00.878Z,9.77
2023-05-15T12:34:46.333Z,11.13
2023-05-15T12:37:41.487Z,12.15
2023-05-15T12:40:17.525Z,12.20
2023-05-15T12:43:33.128Z,11.95
2023-05-15T12:47:15.602Z,12.50
2023-05-15T12:49:52.471Z,10.57
2023-05-15T12:52:36.525Z,11.27
2023-05-15T12:55:23.890Z,11.65
2023-05-15T12:58:00.564Z,11.40
2023-05-15T13:00:30.232Z,10.98
2023-05-15T13:02:58.338Z,12.10
2023-05-15T13:05:27.780Z,12.10
2023-05-15T13:07:55.339Z,12.10
2023-05-15T13:10:24.644Z,12.27
2023-05-15T13:12:54.034Z,12.27
2023-05-15T13:15:31.950Z,13.20
2023-05-15T13:18:08.429Z,13.45
2023-05-15T13:20:41.360Z,13.38
2023-05-15T13:23:23.412Z,12.80
2023-05-15T13:25:50.637Z,13.27
2023-05-15T13:28:17.622Z,14.00
2023-05-15T13:30:44.653Z,13.00
2023-05-15T13:33:13.038Z,12.60
2023-05-15T13:35:42.957Z,14.65
2023-05-15T13:38:11.749Z,13.55
2023-05-15T13:40:39.320Z,13.00
2023-05-15T13:43:06.621Z,12.90
2023-05-15T13:45:33.971Z,12.88
2023-05-15T13:48:01.348Z,14.38
2023-05-15T13:50:28.444Z,12.07
2023-05-15T13:52:55.828Z,11.23
2023-05-15T13:55:23.405Z,12.90
2023-05-15T13:57:51.451Z,11.95
2023-05-15T14:00:19.744Z,10.70
2023-05-15T14:02:46.847Z,11.27
2023-05-15T14:05:15.391Z,11.70
2023-05-15T14:07:42.834Z,11.30
2023-05-15T14:10:12.123Z,10.77
2023-05-15T14:12:40.014Z,12.25
2023-05-15T14:15:07.804Z,11.70
2023-05-15T14:17:35.049Z,12.38
2023-05-15T14:20:02.397Z,11.98
2023-05-15T14:22:29.240Z,10.68
2023-05-15T14:24:56.162Z,9.63
2023-05-15T14:27:23.065Z,10.38
2023-05-15T14:29:50.158Z,9.82
2023-05-15T14:32:17.481Z,9.55
2023-05-15T14:34:44.519Z,10.50
2023-05-15T14:37:11.748Z,11.63
2023-05-15T14:39:39.005Z,13.57
2023-05-15T14:42:06.572Z,12.73
2023-05-15T14:44:34.883Z,13.60
2023-05-15T14:47:13.129Z,13.00
2023-05-15T14:49:40.821Z,11.40
2023-05-15T14:52:10.541Z,9.70
2023-05-15T14:54:39.845Z,10.05
2023-05-15T14:57:11.744Z,9.35
2023-05-15T14:59:38.805Z,11.10
2023-05-15T15:02:05.853Z,12.05
2023-05-15T15:04:34.417Z,10.38
2023-05-15T15:07:04.724Z,11.45
2023-05-15T15:09:31.735Z,11.57
2023-05-15T15:11:58.671Z,10.85
2023-05-15T15:14:25.829Z,11.82
2023-05-15T15:16:52.790Z,12.68
2023-05-15T15:19:20.412Z,13.50
2023-05-15T15:21:47.972Z,13.48
2023-05-15T15:24:15.408Z,14.52
2023-05-15T15:26:42.581Z,15.07
2023-05-15T15:29:09.527Z,14.43
2023-05-15T15:31:36.498Z,15.15
2023-05-15T15:34:05.307Z,14.20
2023-05-15T15:36:32.709Z,14.40
2023-05-15T15:38:59.634Z,16.08
2023-05-15T15:41:29.100Z,15.65
2023-05-15T15:43:55.952Z,14.25
2023-05-15T15:46:22.936Z,14.43
2023-05-15T15:48:50.080Z,14.25
2023-05-15T15:51:17.052Z,13.40
2023-05-15T15:53:43.885Z,12.95
2023-05-15T15:56:10.833Z,13.13
2023-05-15T15:58:39.663Z,13.60
2023-05-15T16:01:09.387Z,13.40
2023-05-15T16:03:45.793Z,13.32
2023-05-15T16:06:32.627Z,15.10
2023-05-15T16:09:05.969Z,14.93
2023-05-15T16:11:43.870Z,13.15
2023-05-15T16:14:29.993Z,13.18
2023-05-15T16:17:05.554Z,12.57
2023-05-15T16:19:36.729Z,12.15
2023-05-15T16:22:16.695Z,12.60
2023-05-15T16:24:59.388Z,12.05
2023-05-15T16:27:56.235Z,13.05
2023-05-15T16:31:11.331Z,12.35
2023-05-15T16:34:03.917Z,13.23
2023-05-15T16:36:50.974Z,12.85
2023-05-15T16:39:31.018Z,13.10
2023-05-15T16:42:33.086Z,12.48
2023-05-15T16:45:02.595Z,11.43
2023-05-15T16:47:34.971Z,10.68
2023-05-15T16:50:03.458Z,11.25
2023-05-15T16:52:30.381Z,13.05
2023-05-15T16:54:57.922Z,12.40
2023-05-15T16:57:25.095Z,13.63
2023-05-15T16:59:52.067Z,12.35
2023-05-15T17:02:19.328Z,10.18
2023-05-15T17:04:46.381Z,9.55
2023-05-15T17:07:13.504Z,10.23
2023-05-15T17:09:44.997Z,12.23
2023-05-15T17:12:12.184Z,11.48
2023-05-15T17:14:39.198Z,11.10
2023-05-15T17:17:06.243Z,13.20
2023-05-15T17:19:36.753Z,12.38
2023-05-15T17:22:03.786Z,12.93
2023-05-15T17:24:42.614Z,13.15
2023-05-15T17:27:18.696Z,12.07
2023-05-15T17:29:46.250Z,12.35
2023-05-15T17:32:13.778Z,12.90
2023-05-15T17:34:40.855Z,11.88
2023-05-15T17:37:09.038Z,11.02
2023-05-15T17:39:35.931Z,11.27
2023-05-15T17:42:03.431Z,11.48
2023-05-15T17:44:31.135Z,11.30
2023-05-15T17:46:58.917Z,11.60
2023-05-15T17:49:26.346Z,11.73
2023-05-15T17:51:53.935Z,11.60
2023-05-15T17:54:20.922Z,11.77
2023-05-15T17:56:48.540Z,12.07
2023-05-15T17:59:15.979Z,12.70
2023-05-15T18:01:43.044Z,12.00
2023-05-15T18:04:10.265Z,11.55
2023-05-15T18:49:20.262Z,8.15
2023-05-15T18:56:29.906Z,8.13
2023-05-15T19:52:48.310Z,4.50
2023-05-15T19:56:03.170Z,4.50
2023-05-15T21:15:15.002Z,4.78
2023-05-15T21:17:41.959Z,4.93
2023-05-15T21:20:09.782Z,4.15
2023-05-15T21:22:37.366Z,4.40
2023-05-15T21:25:06.606Z,4.35
2023-05-15T21:27:34.535Z,5.10
2023-05-15T21:30:01.851Z,4.43
2023-05-15T21:32:29.135Z,4.68
2023-05-15T21:34:56.155Z,4.90
2023-05-15T21:37:23.027Z,4.80
2023-05-15T21:39:50.165Z,4.13
2023-05-15T21:42:17.100Z,3.80
2023-05-15T21:44:44.252Z,3.53
2023-05-15T21:47:11.580Z,3.75
2023-05-15T21:49:39.298Z,3.78
2023-05-15T21:52:06.152Z,3.63
2023-05-15T21:54:34.277Z,3.42
2023-05-15T21:57:01.361Z,3.72
2023-05-15T21:59:28.342Z,3.33
2023-05-15T22:01:55.840Z,3.33
2023-05-15T22:04:22.939Z,3.30
2023-05-15T22:06:49.957Z,2.97
2023-05-15T22:09:17.291Z,2.90
2023-05-15T22:11:44.253Z,2.97
2023-05-15T22:14:12.657Z,3.15
2023-05-15T22:16:40.650Z,2.55
2023-05-15T22:19:13.571Z,3.17
2023-05-15T22:21:49.965Z,3.58
2023-05-15T22:24:17.273Z,3.25
2023-05-15T22:26:44.731Z,3.90
2023-05-15T22:29:12.643Z,3.22
2023-05-15T22:31:39.790Z,4.53
2023-05-15T22:34:06.732Z,4.93
2023-05-15T22:36:36.679Z,5.05
2023-05-15T22:39:04.275Z,5.88
2023-05-15T22:41:31.549Z,6.22
2023-05-15T22:43:58.514Z,6.15
2023-05-15T22:46:25.747Z,5.70
2023-05-15T22:48:52.916Z,6.10
2023-05-15T22:51:20.406Z,6.43
2023-05-15T22:53:47.299Z,7.05
2023-05-15T22:56:14.310Z,6.65
2023-05-15T22:58:41.180Z,6.22
2023-05-15T23:01:08.588Z,5.95
2023-05-15T23:03:35.646Z,6.20
2023-05-15T23:06:02.627Z,5.80
2023-05-15T23:08:29.537Z,6.43
2023-05-15T23:10:56.608Z,5.57
2023-05-15T23:13:23.725Z,5.70
2023-05-15T23:15:51.087Z,4.82
2023-05-15T23:18:18.129Z,5.20
2023-05-15T23:20:45.822Z,5.03
2023-05-15T23:23:12.827Z,5.10
2023-05-15T23:25:39.773Z,4.15
2023-05-15T23:28:06.662Z,3.70
2023-05-15T23:30:33.955Z,3.60
2023-05-15T23:33:00.921Z,3.95
2023-05-15T23:35:27.926Z,3.72
2023-05-15T23:37:55.169Z,3.53
2023-05-15T23:40:22.233Z,4.20
2023-05-15T23:42:49.235Z,3.45
2023-05-15T23:45:16.271Z,3.50
2023-05-15T23:47:43.280Z,3.60
2023-05-15T23:50:10.499Z,3.08
2023-05-15T23:52:37.522Z,2.25
2023-05-15T23:55:05.061Z,1.90
2023-05-15T23:57:32.004Z,1.45
2023-05-15T23:59:59.373Z,1.60
